Time;durP1;ratioP1;P1;durP2;ratioP2;P2;SDS_P1;SDS_P2;PMS_P1;PMS_P2;Temp;Humidity;BMP_temperature;BMP_pressure;BME280_temperature;BME280_humidity;BME280_pressure;Samples;Min_cycle;Max_cycle;Signal;HPM_P1;HPM_P2
2021/12/13 00:00:16;;;;;;;59.80;24.80;;;4.50;99.90;;;;;;5058185;28;20481;-81
2021/12/13 00:02:52;;;;;;;48.20;22.67;;;4.50;99.90;;;;;;5046524;28;20513;-81
2021/12/13 00:05:26;;;;;;;54.80;23.90;;;4.60;99.90;;;;;;5068607;28;20475;-82
2021/12/13 00:07:57;;;;;;;52.20;22.63;;;4.60;99.90;;;;;;5054067;28;20449;-81
2021/12/13 00:10:32;;;;;;;55.60;23.93;;;4.60;99.90;;;;;;5054724;28;20473;-81
2021/12/13 00:13:05;;;;;;;57.90;24.93;;;4.60;99.90;;;;;;5064087;28;20517;-81
2021/12/13 00:15:36;;;;;;;59.73;23.17;;;4.60;99.90;;;;;;5055057;28;20468;-81
2021/12/13 00:18:07;;;;;;;57.20;24.20;;;4.60;99.90;;;;;;5062606;28;20448;-81
2021/12/13 00:20:40;;;;;;;56.27;24.40;;;4.60;99.90;;;;;;5075063;28;20471;-82
2021/12/13 00:23:16;;;;;;;51.50;24.10;;;4.60;99.90;;;;;;5075700;28;21101;-81
2021/12/13 00:25:51;;;;;;;51.40;24.27;;;4.60;99.90;;;;;;5078117;28;20478;-81
2021/12/13 00:28:20;;;;;;;62.27;22.90;;;4.60;99.90;;;;;;5061147;28;20483;-81
2021/12/13 00:31:02;;;;;;;51.17;24.40;;;4.70;99.90;;;;;;5065532;28;20525;-81
2021/12/13 00:33:36;;;;;;;54.40;22.43;;;4.70;99.90;;;;;;5065169;28;20525;-81
2021/12/13 00:36:08;;;;;;;52.13;23.50;;;4.70;99.90;;;;;;5059648;28;20543;-81
2021/12/13 00:38:42;;;;;;;58.23;23.87;;;4.70;99.90;;;;;;5047714;28;21124;-81
2021/12/13 00:41:13;;;;;;;49.97;23.47;;;4.70;99.90;;;;;;5040114;28;20469;-80
2021/12/13 00:43:46;;;;;;;66.33;25.20;;;4.70;99.90;;;;;;5072904;28;20482;-81
2021/12/13 00:46:16;;;;;;;53.87;24.70;;;4.70;99.90;;;;;;5077670;28;20523;-81
2021/12/13 00:48:49;;;;;;;63.23;25.13;;;4.70;99.90;;;;;;5047780;28;20475;-81
2021/12/13 00:51:21;;;;;;;68.87;25.97;;;4.70;99.90;;;;;;5058761;28;20506;-80
2021/12/13 00:53:50;;;;;;;85.33;28.30;;;4.70;99.90;;;;;;5075868;28;20491;-81
2021/12/13 00:56:43;;;;;;;97.13;31.27;;;4.60;99.90;;;;;;5076940;28;20451;-81
2021/12/13 00:59:12;;;;;;;85.50;29.50;;;4.60;99.90;;;;;;5064211;28;20467;-82
2021/12/13 01:01:41;;;;;;;109.20;29.10;;;4.60;99.90;;;;;;5079774;28;20451;-81
2021/12/13 01:04:14;;;;;;;123.13;32.37;;;4.60;99.90;;;;;;5076921;28;20486;-81
2021/12/13 01:07:34;;;;;;;108.30;30.53;;;4.60;99.90;;;;;;5063686;28;20460;-81
2021/12/13 01:10:47;;;;;;;104.40;34.20;;;4.60;99.90;;;;;;5059425;28;20475;-81
2021/12/13 01:13:19;;;;;;;93.80;30.00;;;4.60;99.90;;;;;;5070324;28;20451;-81
2021/12/13 01:15:51;;;;;;;119.00;31.33;;;4.60;99.90;;;;;;5072988;28;20506;-81
2021/12/13 01:18:28;;;;;;;108.20;31.43;;;4.60;99.90;;;;;;5059872;28;20463;-81
2021/12/13 01:21:13;;;;;;;83.80;28.33;;;4.60;99.90;;;;;;5054590;28;20486;-82
2021/12/13 01:23:48;;;;;;;96.67;29.80;;;4.60;99.90;;;;;;5075229;28;20468;-81
2021/12/13 01:26:34;;;;;;;86.37;28.07;;;4.60;99.90;;;;;;5048074;28;20483;-81
2021/12/13 01:29:05;;;;;;;89.53;27.77;;;4.60;99.90;;;;;;5059845;28;20476;-81
2021/12/13 01:31:35;;;;;;;75.90;29.13;;;4.60;99.90;;;;;;5059287;28;20448;-81
2021/12/13 01:34:04;;;;;;;78.60;28.23;;;4.60;99.90;;;;;;5076557;28;20462;-81
2021/12/13 01:36:43;;;;;;;76.00;28.20;;;4.50;99.90;;;;;;5079360;28;20440;-81
2021/12/13 01:39:16;;;;;;;96.43;30.03;;;4.50;99.90;;;;;;5049968;28;20538;-81
2021/12/13 01:41:45;;;;;;;72.87;28.27;;;4.50;99.90;;;;;;5060330;28;20959;-81
2021/12/13 01:44:15;;;;;;;74.87;27.63;;;4.60;99.90;;;;;;5072391;28;20492;-81
2021/12/13 01:46:47;;;;;;;80.40;27.37;;;4.60;99.90;;;;;;5057099;28;20456;-81
2021/12/13 01:49:15;;;;;;;78.23;28.50;;;4.60;99.90;;;;;;5059077;28;20551;-81
2021/12/13 01:51:43;;;;;;;90.53;26.37;;;4.60;99.90;;;;;;5066516;28;20911;-81
2021/12/13 01:54:14;;;;;;;78.43;28.80;;;4.60;99.90;;;;;;5078328;28;20448;-81
2021/12/13 01:56:52;;;;;;;86.13;28.80;;;4.60;99.90;;;;;;5077221;28;20607;-81
2021/12/13 01:59:41;;;;;;;87.30;29.80;;;4.70;99.90;;;;;;5064580;28;20475;-81
2021/12/13 02:02:26;;;;;;;74.37;26.00;;;4.70;99.90;;;;;;5065289;28;20455;-81
2021/12/13 02:05:01;;;;;;;85.67;29.67;;;4.70;99.90;;;;;;5054740;28;20485;-81
2021/12/13 02:07:37;;;;;;;88.73;28.57;;;4.70;99.90;;;;;;5059631;28;20444;-81
2021/12/13 02:10:06;;;;;;;90.77;27.33;;;4.70;99.90;;;;;;5065253;28;20461;-81
2021/12/13 02:12:36;;;;;;;80.20;26.97;;;4.70;99.90;;;;;;5063903;28;20456;-81
2021/12/13 02:17:49;;;;;;;85.13;28.33;;;4.70;99.90;;;;;;5061910;28;20506;-81
2021/12/13 02:20:19;;;;;;;90.43;30.40;;;4.70;99.90;;;;;;5079795;28;20501;-81
2021/12/13 02:22:50;;;;;;;95.17;29.17;;;4.70;99.90;;;;;;5061387;28;20457;-81
2021/12/13 02:25:23;;;;;;;85.33;30.13;;;4.70;99.90;;;;;;5058944;28;20503;-81
2021/12/13 02:27:54;;;;;;;85.87;29.33;;;4.70;99.90;;;;;;5058144;28;20933;-81
2021/12/13 02:30:28;;;;;;;91.53;29.70;;;4.70;99.90;;;;;;5038219;28;20466;-81
2021/12/13 02:32:55;;;;;;;96.67;29.37;;;4.70;99.90;;;;;;5072983;28;20451;-82
2021/12/13 02:35:25;;;;;;;105.10;30.37;;;4.70;99.90;;;;;;5054316;28;20475;-81
2021/12/13 02:37:53;;;;;;;86.07;28.63;;;4.80;99.90;;;;;;5049511;28;20864;-81
2021/12/13 02:40:23;;;;;;;86.70;27.93;;;4.80;99.90;;;;;;5057985;28;20883;-81
2021/12/13 02:42:51;;;;;;;71.77;25.07;;;4.80;99.90;;;;;;5061563;28;20507;-81
2021/12/13 02:45:22;;;;;;;77.23;29.97;;;4.80;99.90;;;;;;5058920;28;20478;-81
2021/12/13 02:47:57;;;;;;;82.30;29.10;;;4.80;99.90;;;;;;5058771;28;20457;-81
2021/12/13 02:50:30;;;;;;;83.63;28.03;;;4.80;99.90;;;;;;5063509;28;20531;-80
2021/12/13 02:53:00;;;;;;;73.37;27.13;;;4.80;99.90;;;;;;5057597;28;20462;-81
2021/12/13 02:55:30;;;;;;;95.43;27.90;;;4.80;99.90;;;;;;5058520;28;20460;-81
2021/12/13 02:58:00;;;;;;;70.27;27.70;;;4.80;99.90;;;;;;5051093;28;20456;-81
2021/12/13 03:00:33;;;;;;;86.17;28.90;;;4.80;99.90;;;;;;5060056;28;21056;-81
2021/12/13 03:03:03;;;;;;;88.30;29.73;;;4.80;99.90;;;;;;5057400;28;20444;-81
2021/12/13 03:05:33;;;;;;;71.80;27.70;;;4.80;99.90;;;;;;5059645;28;20480;-81
2021/12/13 03:08:07;;;;;;;82.07;26.37;;;4.80;99.90;;;;;;5060709;28;20462;-81
2021/12/13 03:10:38;;;;;;;77.87;28.77;;;4.80;99.90;;;;;;5066768;28;20867;-81
2021/12/13 03:13:08;;;;;;;81.97;27.57;;;4.80;99.90;;;;;;5056390;28;20447;-80
2021/12/13 03:15:35;;;;;;;69.50;27.50;;;4.80;99.90;;;;;;5055764;28;20445;-80
2021/12/13 03:18:09;;;;;;;75.87;27.90;;;4.80;99.90;;;;;;5055819;28;20960;-81
2021/12/13 03:20:59;;;;;;;85.20;28.17;;;4.80;99.90;;;;;;5061579;28;20471;-81
2021/12/13 03:23:46;;;;;;;84.90;29.33;;;4.80;99.90;;;;;;5056159;28;20510;-81
2021/12/13 03:26:43;;;;;;;86.57;27.23;;;4.80;99.90;;;;;;5055444;28;20492;-80
2021/12/13 03:29:16;;;;;;;86.93;28.67;;;4.90;99.90;;;;;;5039092;28;20481;-81
2021/12/13 03:31:46;;;;;;;94.17;28.57;;;4.90;99.90;;;;;;5055949;28;20444;-81
2021/12/13 03:34:18;;;;;;;82.17;29.37;;;4.90;99.90;;;;;;5074845;28;20444;-81
2021/12/13 03:36:51;;;;;;;83.03;27.13;;;4.90;99.90;;;;;;5074810;28;20838;-81
2021/12/13 03:39:23;;;;;;;84.47;29.87;;;4.90;99.90;;;;;;5063752;28;21039;-81
2021/12/13 03:41:54;;;;;;;77.17;28.60;;;4.90;99.90;;;;;;5074074;28;20456;-82
2021/12/13 03:44:29;;;;;;;88.83;28.47;;;4.90;99.90;;;;;;5073373;28;20447;-81
2021/12/13 03:47:01;;;;;;;96.37;29.47;;;4.90;99.90;;;;;;5044043;28;20449;-81
2021/12/13 03:49:29;;;;;;;90.13;29.90;;;4.90;99.90;;;;;;5066882;23;20521;-71
2021/12/13 03:51:58;;;;;;;86.10;30.70;;;4.80;99.90;;;;;;5043326;28;20506;-70
2021/12/13 03:54:28;;;;;;;89.87;29.43;;;4.80;99.90;;;;;;5035623;28;20453;-70
2021/12/13 03:56:56;;;;;;;70.67;29.27;;;4.80;99.90;;;;;;5031554;28;20445;-71
2021/12/13 03:59:28;;;;;;;81.60;28.07;;;4.80;99.90;;;;;;5034645;28;20821;-70
2021/12/13 04:01:57;;;;;;;82.60;28.03;;;4.80;99.90;;;;;;5013369;28;20876;-70
2021/12/13 04:04:29;;;;;;;63.87;25.93;;;4.80;99.90;;;;;;5025178;28;20872;-71
2021/12/13 04:06:59;;;;;;;69.33;27.20;;;4.80;99.90;;;;;;5014517;28;20451;-71
2021/12/13 04:09:29;;;;;;;74.83;26.23;;;4.80;99.90;;;;;;5011784;28;20517;-71
2021/12/13 04:11:59;;;;;;;74.30;26.30;;;4.80;99.90;;;;;;5011798;28;20956;-71
2021/12/13 04:14:37;;;;;;;76.50;27.10;;;4.90;99.90;;;;;;5012163;28;21036;-70
2021/12/13 04:17:22;;;;;;;61.93;26.60;;;4.90;99.90;;;;;;5016685;28;20585;-71
2021/12/13 04:19:53;;;;;;;64.80;25.27;;;4.90;99.90;;;;;;5011740;28;20477;-71
2021/12/13 04:22:24;;;;;;;72.97;27.23;;;4.80;99.90;;;;;;4996563;28;20455;-71
2021/12/13 04:24:55;;;;;;;66.20;26.87;;;4.80;99.90;;;;;;5012566;28;20456;-70
2021/12/13 04:27:24;;;;;;;64.00;26.43;;;4.80;99.90;;;;;;5016535;28;20810;-70
2021/12/13 04:29:56;;;;;;;69.03;26.73;;;4.80;99.90;;;;;;5011096;28;20470;-70
2021/12/13 04:32:26;;;;;;;67.80;26.93;;;4.80;99.90;;;;;;5011798;28;20940;-71
2021/12/13 04:34:55;;;;;;;78.33;28.27;;;4.80;99.90;;;;;;5011177;28;20458;-71
2021/12/13 04:37:24;;;;;;;65.50;26.93;;;4.80;99.90;;;;;;5025861;28;20453;-71
2021/12/13 04:39:56;;;;;;;69.87;28.00;;;4.90;99.90;;;;;;5029436;28;20476;-71
2021/12/13 04:42:26;;;;;;;71.20;27.13;;;4.80;99.90;;;;;;5011441;28;20446;-70
2021/12/13 04:44:58;;;;;;;78.93;27.63;;;4.90;99.90;;;;;;5011434;28;20450;-71
2021/12/13 04:47:31;;;;;;;88.70;29.50;;;4.90;99.90;;;;;;5025664;28;20453;-70
2021/12/13 04:50:05;;;;;;;65.47;27.00;;;4.90;99.90;;;;;;5030888;28;20480;-71
2021/12/13 04:52:34;;;;;;;80.73;29.57;;;4.90;99.90;;;;;;5031205;28;20452;-70
2021/12/13 04:55:07;;;;;;;83.10;29.70;;;4.90;99.90;;;;;;5030562;28;20457;-71
2021/12/13 04:57:34;;;;;;;68.43;26.73;;;4.90;99.90;;;;;;5019056;28;20858;-71
2021/12/13 05:00:05;;;;;;;79.93;28.27;;;4.90;99.90;;;;;;5030696;28;20519;-70
2021/12/13 05:02:32;;;;;;;70.00;28.00;;;4.90;99.90;;;;;;5031139;28;20460;-71
2021/12/13 05:05:01;;;;;;;86.77;27.70;;;4.90;99.90;;;;;;5029498;28;20456;-71
2021/12/13 05:07:31;;;;;;;99.70;30.80;;;4.90;99.90;;;;;;5024111;28;20453;-71
2021/12/13 05:09:58;;;;;;;89.33;27.50;;;4.90;99.90;;;;;;5015192;28;20528;-70
2021/12/13 05:12:28;;;;;;;91.77;30.03;;;4.90;99.90;;;;;;5033863;28;20519;-70
2021/12/13 05:14:58;;;;;;;128.77;29.87;;;4.90;99.90;;;;;;5033503;28;20540;-70
2021/12/13 05:17:28;;;;;;;93.60;29.40;;;4.90;99.90;;;;;;5020543;28;20512;-70
2021/12/13 05:20:01;;;;;;;115.63;31.03;;;4.90;99.90;;;;;;5028637;28;20554;-71
2021/12/13 05:22:30;;;;;;;110.40;30.47;;;4.90;99.90;;;;;;5018566;28;20873;-71
2021/12/13 05:25:02;;;;;;;109.13;31.30;;;4.90;99.90;;;;;;5034169;28;20466;-71
2021/12/13 05:27:33;;;;;;;96.97;30.93;;;4.90;99.90;;;;;;5034590;28;21140;-71
2021/12/13 05:30:12;;;;;;;102.67;32.03;;;4.90;99.90;;;;;;5033888;28;20472;-71
2021/12/13 05:32:43;;;;;;;103.47;32.60;;;4.90;99.90;;;;;;5034467;28;21046;-70
2021/12/13 05:35:17;;;;;;;121.80;32.90;;;4.90;99.90;;;;;;5020409;28;20454;-71
2021/12/13 05:37:46;;;;;;;99.37;32.33;;;4.90;99.90;;;;;;5013932;28;20466;-71
2021/12/13 05:40:20;;;;;;;132.23;31.63;;;4.90;99.90;;;;;;5014947;28;20469;-71
2021/12/13 05:42:50;;;;;;;89.53;31.87;;;4.90;99.90;;;;;;5014687;28;20454;-70
2021/12/13 05:45:20;;;;;;;85.20;31.47;;;4.90;99.90;;;;;;5014187;28;20516;-71
2021/12/13 05:47:59;;;;;;;126.37;33.77;;;4.90;99.90;;;;;;5013326;28;20458;-71
2021/12/13 05:50:31;;;;;;;135.33;32.57;;;4.90;99.90;;;;;;5033602;28;20485;-70
2021/12/13 05:53:08;;;;;;;179.47;33.70;;;5.00;99.90;;;;;;5033871;28;20496;-71
2021/12/13 05:55:57;;;;;;;213.23;34.57;;;4.90;99.90;;;;;;5033843;28;20449;-70
2021/12/13 05:58:32;;;;;;;100.33;34.50;;;4.90;99.90;;;;;;5001570;28;20478;-72
2021/12/13 06:01:00;;;;;;;134.77;34.80;;;4.90;99.90;;;;;;5017601;28;20478;-71
2021/12/13 06:03:33;;;;;;;107.50;34.27;;;4.90;99.90;;;;;;5014036;28;20878;-70
2021/12/13 06:06:07;;;;;;;255.23;36.27;;;4.90;99.90;;;;;;5013636;28;20489;-70
2021/12/13 06:08:42;;;;;;;230.50;37.03;;;4.90;99.90;;;;;;5031515;28;20999;-70
2021/12/13 06:11:11;;;;;;;99.63;33.00;;;4.90;99.90;;;;;;5033817;28;20539;-71
2021/12/13 06:13:58;;;;;;;150.47;34.43;;;4.90;99.90;;;;;;5018262;28;20486;-71
2021/12/13 06:16:41;;;;;;;143.93;35.30;;;4.90;99.90;;;;;;5009856;28;20499;-71
2021/12/13 06:19:12;;;;;;;138.37;36.77;;;4.90;99.90;;;;;;5023309;28;20461;-70
2021/12/13 06:21:52;;;;;;;148.80;34.57;;;4.90;99.90;;;;;;5029898;28;20457;-71
2021/12/13 06:24:29;;;;;;;135.13;34.50;;;4.90;99.90;;;;;;5033504;28;20960;-72
2021/12/13 06:27:18;;;;;;;227.07;34.90;;;4.90;99.90;;;;;;5032012;28;20554;-70
2021/12/13 06:30:07;;;;;;;333.47;36.90;;;4.90;99.90;;;;;;5029343;28;20481;-70
2021/12/13 06:32:38;;;;;;;272.67;36.20;;;4.80;99.90;;;;;;5033357;28;20449;-71
2021/12/13 06:35:38;;;;;;;225.70;34.70;;;4.80;99.90;;;;;;5033213;28;20445;-71
2021/12/13 06:38:36;;;;;;;137.73;31.30;;;4.80;99.90;;;;;;5019736;28;20508;-71
2021/12/13 06:41:09;;;;;;;281.23;35.90;;;4.70;99.90;;;;;;5017486;28;20465;-70
2021/12/13 06:43:38;;;;;;;180.20;35.40;;;4.70;99.90;;;;;;5032870;28;20511;-71
2021/12/13 06:46:11;;;;;;;269.77;36.23;;;4.70;99.90;;;;;;5032502;28;20489;-70
2021/12/13 06:48:44;;;;;;;207.07;35.10;;;4.80;99.90;;;;;;5033469;28;20453;-71
2021/12/13 06:51:15;;;;;;;311.87;38.17;;;4.70;99.90;;;;;;5032664;28;20481;-71
2021/12/13 06:53:58;;;;;;;249.70;36.87;;;4.70;99.90;;;;;;4999980;28;20454;-72
2021/12/13 06:56:30;;;;;;;210.70;37.83;;;4.70;99.90;;;;;;5025167;28;20949;-72
2021/12/13 06:58:59;;;;;;;142.63;33.30;;;4.70;99.90;;;;;;5021043;28;20453;-71
2021/12/13 07:01:29;;;;;;;101.13;31.50;;;4.70;99.90;;;;;;5016833;28;20485;-70
2021/12/13 07:03:58;;;;;;;74.57;29.37;;;4.70;99.90;;;;;;5013285;28;20450;-70
2021/12/13 07:06:26;;;;;;;74.70;27.97;;;4.60;99.90;;;;;;5013790;28;20513;-70
2021/12/13 07:09:10;;;;;;;76.13;28.77;;;4.60;99.90;;;;;;5012896;28;20866;-70
2021/12/13 07:11:48;;;;;;;102.27;31.13;;;4.70;99.90;;;;;;5012466;28;20519;-70
2021/12/13 07:14:20;;;;;;;85.73;31.17;;;4.70;99.90;;;;;;5005204;28;20517;-71
2021/12/13 07:16:52;;;;;;;89.03;31.70;;;4.70;99.90;;;;;;5008795;28;20447;-71
2021/12/13 07:19:22;;;;;;;99.33;35.10;;;4.70;99.90;;;;;;5006345;28;20572;-70
2021/12/13 07:21:56;;;;;;;106.63;31.90;;;4.70;99.90;;;;;;5017293;28;20489;-71
2021/12/13 07:24:32;;;;;;;111.90;33.23;;;4.70;99.90;;;;;;5013009;28;20455;-72
2021/12/13 07:27:05;;;;;;;120.10;33.37;;;4.70;99.90;;;;;;5010965;28;20480;-72
2021/12/13 07:29:39;;;;;;;170.20;32.53;;;4.70;99.90;;;;;;5028037;28;20488;-71
2021/12/13 07:32:13;;;;;;;101.33;33.30;;;4.70;99.90;;;;;;5007773;28;20455;-71
2021/12/13 07:35:00;;;;;;;116.13;33.20;;;4.70;99.90;;;;;;4996990;28;20831;-71
2021/12/13 07:37:36;;;;;;;169.33;34.90;;;4.70;99.90;;;;;;5014766;28;20446;-71
2021/12/13 07:40:27;;;;;;;144.13;33.27;;;4.70;99.90;;;;;;5000232;28;20519;-71
2021/12/13 07:43:04;;;;;;;161.47;37.70;;;4.80;99.90;;;;;;5030984;28;20460;-71
2021/12/13 07:45:36;;;;;;;161.60;35.60;;;4.80;99.90;;;;;;5025255;28;20532;-71
2021/12/13 07:48:09;;;;;;;149.07;36.47;;;4.80;99.90;;;;;;5014619;28;20532;-71
2021/12/13 07:50:37;;;;;;;106.77;32.17;;;4.90;99.90;;;;;;5010668;28;20482;-71
2021/12/13 07:53:08;;;;;;;129.73;32.60;;;4.90;99.90;;;;;;5011236;28;21020;-71
2021/12/13 07:55:41;;;;;;;151.67;34.00;;;4.90;99.90;;;;;;5012119;28;20986;-71
2021/12/13 07:58:07;;;;;;;178.17;31.80;;;4.90;99.90;;;;;;5025439;28;20450;-70
2021/12/13 08:00:37;;;;;;;120.30;31.27;;;4.90;99.90;;;;;;5012436;28;20507;-71
2021/12/13 08:03:10;;;;;;;115.63;31.83;;;4.90;99.90;;;;;;5021566;28;20449;-71
2021/12/13 08:05:41;;;;;;;107.43;30.30;;;4.90;99.90;;;;;;5011583;28;20450;-71
2021/12/13 08:08:16;;;;;;;153.30;31.70;;;4.90;99.90;;;;;;5012915;28;20548;-71
2021/12/13 08:10:44;;;;;;;166.03;31.50;;;5.00;99.90;;;;;;5015454;28;20564;-71
2021/12/13 08:13:15;;;;;;;92.27;29.73;;;5.00;99.90;;;;;;5020346;28;20454;-71
2021/12/13 08:15:46;;;;;;;113.83;29.03;;;5.00;99.90;;;;;;5027011;28;20453;-72
2021/12/13 08:18:24;;;;;;;130.07;32.93;;;5.00;99.90;;;;;;5016847;28;21159;-70
2021/12/13 08:20:53;;;;;;;101.90;30.03;;;5.00;99.90;;;;;;5017641;28;20470;-71
2021/12/13 08:23:23;;;;;;;85.83;29.90;;;5.00;99.90;;;;;;5010423;28;20478;-71
2021/12/13 08:25:54;;;;;;;172.80;30.07;;;5.00;99.90;;;;;;4991963;28;20533;-71
2021/12/13 08:28:31;;;;;;;109.47;29.87;;;5.00;99.90;;;;;;5007315;28;21183;-72
2021/12/13 08:31:00;;;;;;;108.60;29.50;;;5.00;99.90;;;;;;5015736;28;20904;-71
2021/12/13 08:33:35;;;;;;;76.23;29.00;;;5.00;99.90;;;;;;5024428;28;20463;-72
2021/12/13 08:36:04;;;;;;;74.90;26.97;;;5.00;99.90;;;;;;5012558;28;20454;-72
2021/12/13 08:38:42;;;;;;;72.30;29.30;;;5.10;99.90;;;;;;5011097;28;20454;-72
2021/12/13 08:41:23;;;;;;;130.60;30.90;;;5.10;99.90;;;;;;5010582;28;20488;-70
2021/12/13 08:43:54;;;;;;;134.23;30.00;;;5.10;99.90;;;;;;5015081;28;20457;-71
2021/12/13 08:46:30;;;;;;;89.87;27.43;;;5.10;99.90;;;;;;5014139;28;20570;-71
2021/12/13 08:48:59;;;;;;;89.53;32.70;;;5.10;99.90;;;;;;5028065;28;20964;-71
2021/12/13 08:51:28;;;;;;;99.73;27.83;;;5.10;99.90;;;;;;5018375;28;20449;-72
2021/12/13 08:54:04;;;;;;;61.70;26.83;;;5.10;99.90;;;;;;5021585;28;20516;-73
2021/12/13 08:56:34;;;;;;;106.33;28.23;;;5.10;99.90;;;;;;5023933;28;20976;-73
2021/12/13 08:59:08;;;;;;;66.20;26.90;;;5.20;99.90;;;;;;5013756;28;20861;-73
2021/12/13 09:01:42;;;;;;;70.63;27.50;;;5.20;99.90;;;;;;5010876;28;21039;-74
2021/12/13 09:04:11;;;;;;;60.50;28.10;;;5.20;99.90;;;;;;5013695;28;20450;-75
2021/12/13 09:06:38;;;;;;;103.37;29.67;;;5.20;99.90;;;;;;5016901;28;20512;-75
2021/12/13 09:09:12;;;;;;;84.10;30.70;;;5.20;99.90;;;;;;5013549;28;21018;-74
2021/12/13 09:11:45;;;;;;;72.10;27.43;;;5.20;99.90;;;;;;5015034;28;20478;-75
2021/12/13 09:14:17;;;;;;;90.13;30.77;;;5.30;99.90;;;;;;5012414;28;20473;-74
2021/12/13 09:17:07;;;;;;;80.23;28.67;;;5.30;99.90;;;;;;5013635;28;20450;-74
2021/12/13 09:19:41;;;;;;;67.10;27.77;;;5.30;99.90;;;;;;5010996;28;20478;-73
2021/12/13 09:22:12;;;;;;;76.57;29.97;;;5.30;99.90;;;;;;5013635;28;20469;-74
2021/12/13 09:24:48;;;;;;;71.97;28.07;;;5.30;99.90;;;;;;5021263;28;21058;-74
2021/12/13 09:27:28;;;;;;;68.70;28.70;;;5.30;99.90;;;;;;5032223;28;21200;-74
2021/12/13 09:30:25;;;;;;;90.13;30.10;;;5.30;99.90;;;;;;5016199;28;20797;-72
2021/12/13 09:32:56;;;;;;;68.87;28.70;;;5.40;99.90;;;;;;5008022;28;20470;-72
2021/12/13 09:35:31;;;;;;;80.70;27.73;;;5.40;99.90;;;;;;5012793;28;20534;-72
2021/12/13 09:38:00;;;;;;;63.53;27.90;;;5.50;99.90;;;;;;4999325;28;20441;-72
2021/12/13 09:40:32;;;;;;;60.57;25.70;;;5.50;99.90;;;;;;5033297;28;20469;-73
2021/12/13 09:42:59;;;;;;;57.30;25.63;;;5.50;99.90;;;;;;5023518;28;20462;-72
2021/12/13 09:45:32;;;;;;;61.93;27.07;;;5.50;99.90;;;;;;5013312;28;20458;-72
2021/12/13 09:48:14;;;;;;;60.67;26.07;;;5.50;99.90;;;;;;5017434;28;20576;-73
2021/12/13 09:50:43;;;;;;;58.20;26.33;;;5.60;99.90;;;;;;5016018;28;20482;-72
2021/12/13 09:53:11;;;;;;;52.80;23.50;;;5.60;99.90;;;;;;5012126;28;20450;-72
2021/12/13 09:55:41;;;;;;;54.83;24.03;;;5.70;99.90;;;;;;5013543;28;20466;-72
2021/12/13 09:58:12;;;;;;;52.60;23.60;;;5.70;99.90;;;;;;5027738;28;20834;-72
2021/12/13 10:00:44;;;;;;;49.50;22.83;;;5.70;99.90;;;;;;5012778;28;20466;-71
2021/12/13 10:03:13;;;;;;;55.63;25.13;;;5.80;99.90;;;;;;5035349;23;20505;-72
2021/12/13 10:05:45;;;;;;;53.07;25.30;;;5.80;99.90;;;;;;5012302;28;20446;-72
2021/12/13 10:08:16;;;;;;;53.40;25.27;;;5.80;99.90;;;;;;5019102;28;20481;-71
2021/12/13 10:10:47;;;;;;;55.93;25.80;;;5.90;99.90;;;;;;5028408;28;20941;-71
2021/12/13 10:13:19;;;;;;;52.43;24.63;;;5.90;99.90;;;;;;5011089;28;20475;-72
2021/12/13 10:15:51;;;;;;;55.00;25.00;;;5.90;99.90;;;;;;4992594;28;20498;-72
2021/12/13 10:18:24;;;;;;;65.37;26.00;;;5.90;99.90;;;;;;4995104;28;20813;-72
2021/12/13 10:20:55;;;;;;;57.40;25.37;;;5.90;99.90;;;;;;5012018;28;20969;-70
2021/12/13 10:23:27;;;;;;;47.63;23.50;;;5.90;99.90;;;;;;5004002;28;20476;-69
2021/12/13 10:25:57;;;;;;;46.70;23.00;;;6.00;99.90;;;;;;4998553;28;20885;-71
2021/12/13 10:28:26;;;;;;;48.07;22.40;;;6.00;99.90;;;;;;4996929;28;20533;-71
2021/12/13 10:30:57;;;;;;;42.27;22.17;;;6.00;99.90;;;;;;4997242;28;20442;-69
2021/12/13 10:33:28;;;;;;;123.17;53.23;;;6.00;99.90;;;;;;4993432;28;20475;-70
2021/12/13 10:35:56;;;;;;;47.03;23.30;;;6.00;99.90;;;;;;4995274;28;20459;-70
2021/12/13 10:38:26;;;;;;;48.83;22.60;;;6.00;99.90;;;;;;4999682;28;20514;-68
2021/12/13 10:40:56;;;;;;;46.20;20.90;;;6.00;99.90;;;;;;4993307;28;20447;-69
2021/12/13 10:43:25;;;;;;;46.40;22.23;;;6.00;99.90;;;;;;4990937;28;21003;-70
2021/12/13 10:45:57;;;;;;;46.57;24.00;;;6.00;99.90;;;;;;4989562;28;20495;-69
2021/12/13 10:48:29;;;;;;;46.00;23.40;;;6.00;99.90;;;;;;4992985;28;20511;-69
2021/12/13 10:51:05;;;;;;;48.13;21.10;;;6.00;99.90;;;;;;4992361;28;21163;-69
2021/12/13 10:53:34;;;;;;;47.97;24.23;;;6.00;99.90;;;;;;5006552;28;20469;-69
2021/12/13 10:56:06;;;;;;;48.20;23.23;;;6.10;99.90;;;;;;4999033;28;20479;-69
2021/12/13 10:58:39;;;;;;;49.90;21.90;;;6.20;99.90;;;;;;4992928;28;20447;-70
2021/12/13 11:01:09;;;;;;;46.63;21.93;;;6.30;99.90;;;;;;5000327;28;20516;-70
2021/12/13 11:03:39;;;;;;;45.43;20.60;;;6.40;99.90;;;;;;4995403;28;20471;-69
2021/12/13 11:06:10;;;;;;;47.33;22.20;;;6.50;99.90;;;;;;4999022;28;20513;-70
2021/12/13 11:08:41;;;;;;;46.70;22.50;;;6.50;99.90;;;;;;4998422;28;20548;-70
2021/12/13 11:11:13;;;;;;;44.13;20.50;;;6.60;99.90;;;;;;4972793;28;20487;-70
2021/12/13 11:13:40;;;;;;;37.57;19.83;;;6.60;99.90;;;;;;4989909;28;20467;-70
2021/12/13 11:16:11;;;;;;;43.77;19.77;;;6.60;99.90;;;;;;4993174;28;20854;-70
2021/12/13 11:18:38;;;;;;;47.03;22.10;;;6.60;99.90;;;;;;4994516;28;20451;-70
2021/12/13 11:21:11;;;;;;;38.17;21.03;;;6.50;99.90;;;;;;4982598;28;20994;-70
2021/12/13 11:23:38;;;;;;;55.23;21.13;;;6.50;99.90;;;;;;5007136;28;20895;-70
2021/12/13 11:26:07;;;;;;;49.63;20.63;;;6.50;99.90;;;;;;5010017;28;20446;-70
2021/12/13 11:28:35;;;;;;;49.67;23.37;;;6.50;99.90;;;;;;4988443;28;21010;-70
2021/12/13 11:31:10;;;;;;;44.47;22.03;;;6.40;99.90;;;;;;4993383;28;20454;-69
2021/12/13 11:34:22;;;;;;;52.40;21.60;;;6.40;99.90;;;;;;5006027;28;20474;-70
2021/12/13 11:37:25;;;;;;;58.17;22.97;;;6.40;99.90;;;;;;4998989;28;20926;-70
2021/12/13 11:40:08;;;;;;;53.00;24.27;;;6.40;99.90;;;;;;4976476;28;20510;-70
2021/12/13 11:43:07;;;;;;;46.33;21.77;;;6.40;99.90;;;;;;4998257;28;20999;-70
2021/12/13 11:45:57;;;;;;;53.70;24.87;;;6.40;99.90;;;;;;4989341;28;20444;-70
2021/12/13 11:48:55;;;;;;;64.33;27.63;;;6.30;99.90;;;;;;4981462;28;20852;-70
2021/12/13 11:51:50;;;;;;;51.20;24.57;;;6.30;99.90;;;;;;4999364;28;20529;-70
2021/12/13 11:54:51;;;;;;;47.93;24.87;;;6.30;99.90;;;;;;5001112;28;20995;-70
2021/12/13 11:58:01;;;;;;;55.37;25.43;;;6.30;99.90;;;;;;4988032;28;20455;-70
2021/12/13 12:00:43;;;;;;;58.20;24.60;;;6.30;99.90;;;;;;4974499;28;20447;-70
2021/12/13 12:04:30;;;;;;;52.90;24.33;;;6.30;99.90;;;;;;4992561;28;20474;-70
2021/12/13 12:07:25;;;;;;;56.87;26.17;;;6.30;99.90;;;;;;4989821;28;20451;-70
2021/12/13 12:10:11;;;;;;;62.20;27.10;;;6.40;99.90;;;;;;5003722;28;20454;-70
2021/12/13 12:12:56;;;;;;;57.33;25.17;;;6.40;99.90;;;;;;5000924;28;20557;-70
2021/12/13 12:15:25;;;;;;;63.77;25.43;;;6.50;99.90;;;;;;4997758;28;20462;-70
2021/12/13 12:17:53;;;;;;;62.20;26.63;;;6.50;99.90;;;;;;4995208;28;20454;-70
2021/12/13 12:20:26;;;;;;;56.33;25.30;;;6.50;99.90;;;;;;4994083;28;20546;-70
2021/12/13 12:22:55;;;;;;;68.53;25.73;;;6.60;99.90;;;;;;4993506;28;20467;-69
2021/12/13 12:25:27;;;;;;;55.50;24.93;;;6.50;99.90;;;;;;5003849;28;20465;-69
2021/12/13 12:28:06;;;;;;;59.80;25.57;;;6.60;99.90;;;;;;4992921;28;20479;-69
2021/12/13 12:30:38;;;;;;;46.83;24.03;;;6.60;99.90;;;;;;5009523;28;20450;-69
2021/12/13 12:33:10;;;;;;;58.87;27.30;;;6.60;99.90;;;;;;5012164;28;20821;-68
2021/12/13 12:35:42;;;;;;;64.20;26.20;;;6.50;99.90;;;;;;5006034;28;20817;-69
2021/12/13 12:38:21;;;;;;;65.90;25.23;;;6.50;99.90;;;;;;5008089;28;20537;-69
2021/12/13 12:40:59;;;;;;;59.37;27.87;;;6.50;99.90;;;;;;4978395;28;20447;-70
2021/12/13 12:43:28;;;;;;;61.07;27.17;;;6.50;99.90;;;;;;4992114;28;20475;-69
2021/12/13 12:45:58;;;;;;;56.97;27.10;;;6.50;99.90;;;;;;4990511;28;20447;-69
2021/12/13 12:48:28;;;;;;;60.67;28.00;;;6.50;99.90;;;;;;4975544;28;20490;-69
2021/12/13 12:51:03;;;;;;;61.33;26.70;;;6.50;99.90;;;;;;4990856;28;20451;-69
2021/12/13 12:53:36;;;;;;;55.97;24.70;;;6.50;99.90;;;;;;4990586;28;20525;-69
2021/12/13 12:56:09;;;;;;;58.77;26.17;;;6.50;99.90;;;;;;4991388;28;20455;-70
2021/12/13 12:58:38;;;;;;;55.73;28.43;;;6.50;99.90;;;;;;4988354;28;20467;-69
2021/12/13 13:01:13;;;;;;;62.00;27.63;;;6.50;99.90;;;;;;4990656;28;20451;-69
2021/12/13 13:03:41;;;;;;;55.40;26.70;;;6.50;99.90;;;;;;4992438;28;20485;-69
2021/12/13 13:06:10;;;;;;;61.70;28.23;;;6.50;99.90;;;;;;4994988;28;20447;-69
2021/12/13 13:08:40;;;;;;;62.93;26.77;;;6.50;99.90;;;;;;4991997;28;20478;-69
2021/12/13 13:14:10;;;;;;;51.50;24.83;;;6.40;99.90;;;;;;4965245;28;20601;-69